Aktualne dane pomiarowe

Uwaga, wersja testowa! Automatyczne pobieranie danych za pomocą narzędzi lub skryptów to umożliwiających jest zabronione.

Dane meteo z obszaru Polski uzyskane na podstawie depesz SYNOP pobieranych co godzinę z NWS. Najedź myszką na symbol przedstawiony w tabeli, aby uzyskać informacje co do jego znaczenia. Prosimy pamiętać, że to testowa wersja strony, która jeszcze nie jest ukończona. Stworzono również jest krótki FAQ dotyczący korzystania z tej podstrony Anomalie temperatury w chwili obecnej odniesione są do okresu referencyjnego 1951-2016. Okres ten będzie później zmieniony na 1981-2010. Kliknij ikonę aby pobrać plik CSV. Kliknij ikonę aby wygenerować mapę synoptyczną dla danego terminu.

Wybierz Datę:    

        

Częstochowa (12550)

Dane terminowe dla wybranej stacji. Kliknij datę, aby otrzymać dane z tego terminu dla wszystkich stacji.

TemperaturaZachmurzenieWiatrCiśnienieOpadyPogoda
 Data t td wb tx tn tg rh  Nt Nl Cl Cm Ch ws wd g1 g2 wx mslp ppp ch 24h 12h t ww ww w1 w2  
2019-08-22 23:00:00 17.2 11.7 13.7--- 7040.0--2wx--21027.9 992.8 0.0---------
2019-08-22 22:00:00 17.3 12.2 14.0--- 7240.0--2wx--21027.9 992.8 0.0---------
2019-08-22 21:00:00 17.6 12.1 14.1--- 7030.0--2wx--21028.0 992.9 0.6---------
2019-08-22 20:00:00 18.6 11.9 14.4--- 6535.0--2wx--21027.7 992.8 0.5---------
2019-08-22 19:00:00 19.1 11.9 14.6--- 6345.0--2wx---1027.7 992.8 0.4---------
2019-08-22 18:00:00 19.7 11.7 14.7 21.6 14.5- 6040.0--2wx-821027.1 992.3 -0.1- 0.012------
2019-08-22 17:00:00 20.2 11.4 14.8--- 5740.0--2wx--21027.0 992.3 -0.3---------
2019-08-22 16:00:00 20.7 11.6 15.1--- 5635.0--2wx-721027.1 992.4 -0.6---------
2019-08-22 15:00:00 21.3 11.3 15.2--- 5335.0--2wx-821027.0 992.4 -1.0---------
2019-08-22 14:00:00 21.2 12.3 15.7--- 5730.0--3wx--31027.2 992.6 -1.4---------
2019-08-22 13:00:00 21.2 11.5 15.3--- 5426.0--3wx-831027.6 993.0 -1.4---------
2019-08-22 12:00:00 21.3 13.0 16.1--- 5928.0--3wx--31028.0 993.4 -1.2- 0.06------
2019-08-22 11:00:00 20.7 12.4 15.5--- 5927.0--2wx--21028.7 994.0 -0.4---------
2019-08-22 10:00:00 19.6 12.1 14.9--- 6226.0--3wx--31029.3 994.4 -0.1---------
2019-08-22 09:00:00 18.8 12.3 14.7--- 6624.0--3wx--31029.6 994.6 0.1---------
2019-08-22 08:00:00 18.1 13.6 15.1--- 7518.0--2wx--21029.5 994.4 0.0---------
2019-08-22 07:00:00 15.8 13.8 14.4--- 889.0--2wx--21029.9 994.5 0.3---wx-----
2019-08-22 06:00:00 14.6 13.0 13.5 16.9 13.0 12 907.0--2wx--21030.0 994.5 0.4 0.3 0.012wx---- 0.9
2019-08-22 05:00:00 14.1 12.8 13.2--- 926.0--2wx---1030.0 994.4 0.5---wx-----
2019-08-22 04:00:00 13.5 12.6 12.8--- 945.0--2wx--21029.8 994.2 0.1---wx-----
2019-08-22 03:00:00 13.3 12.4 12.6--- 946.0--1wx--11029.8 994.1 0.1---wx-----
2019-08-22 02:00:00 13.7 12.4 12.8--- 9210.0--1wx--11029.5 993.9 -0.2---------
2019-08-22 01:00:00 14.1 12.7 13.1--- 9113.0--1wx--11029.7 994.1 0.0---------
2019-08-22 00:00:00 14.4 12.9 13.3--- 9113.0--1wx--11029.5 994.0 0.0- 0.06------
2019-08-21 23:00:00 14.5 12.9 13.4--- 9013.0--1wx--11029.6 994.1 0.3---------
2019-08-21 22:00:00 15.1 13.0 13.6--- 8719.0--1wx--11029.5 994.1 0.4---------
2019-08-21 21:00:00 15.8 13.5 14.2--- 8620.0--1wx--11029.3 994.0 0.7---------
2019-08-21 20:00:00 16.3 13.2 14.2--- 8225.0--1wx--11029.1 993.8 0.8---------
2019-08-21 19:00:00 16.6 13.3 14.4--- 8125.0--1wx--11028.9 993.7 0.8---------
2019-08-21 18:00:00 16.9 13.4 14.5 18.4 14.3- 8030.0--2wx--21028.5 993.3 0.5- 0.312------
2019-08-21 17:00:00 17.1 13.0 14.4--- 7729.0--2wx--21028.1 993.0 0.3---------
2019-08-21 16:00:00 17.4 13.5 14.8--- 7830.0--2wx--21028.0 992.9 0.7---------
2019-08-21 15:00:00 17.3 12.6 14.2--- 7435.0--3wx--31027.9 992.8 0.7---------
2019-08-21 14:00:00 17.4 12.9 14.4--- 7535.0--3wx--31027.8 992.7 1.0---------
2019-08-21 13:00:00 17.0 12.7 14.2--- 7640.0--3wx---1027.3 992.2 1.0---------
2019-08-21 12:00:00 16.9 13.6 14.7--- 8130.0--3wx-1131027.2 992.1 1.1- 0.36------
2019-08-21 11:00:00 17.3 13.2 14.6--- 7728.0--4wx-1141026.8 991.7 1.3---------
2019-08-21 10:00:00 17.7 13.2 14.7--- 7530.0--6wx--61026.2 991.2 1.9---------
2019-08-21 09:00:00 16.6 13.9 14.7--- 8428.0--6wx-1061026.1 991.0 3.0---------
2019-08-21 08:00:00 15.0 13.9 14.2--- 9315.0--4wx--41025.7 990.4 3.5---wx-----
2019-08-21 07:00:00 14.5 13.9 14.0--- 963.4--4wx--41024.6 989.3 3.4---wx-----
2019-08-21 06:00:00 14.6 14.0 14.1 21.7 14.6 15 963.6--6wx111161023.3 988.0 3.7 10.0 10.012wx---- 2.5
2019-08-21 05:00:00 15.4 14.8 14.9--- 961.7--2wx--21022.0 986.9 2.7---wx-----
2019-08-21 04:00:00 15.6 14.8 15.0--- 955.0--2wx---1021.0 985.9 2.1---wx-----
2019-08-21 03:00:00 16.6 15.6 15.9--- 945.0--2wx---1019.2 984.3 0.5---wx-----
2019-08-21 02:00:00 18.7 17.9 18.1--- 955.0--1wx--11018.8 984.2 0.5---wx-----
2019-08-21 01:00:00 19.3 18.3 18.6--- 945.0--1wx--11018.3 983.8 0.9---wx-----
2019-08-21 00:00:00 19.1 18.1 18.4--- 944.7--1wx--11018.4 983.8 -0.2- 4.06wx-----
10.1 ms

 

Print Friendly, PDF & Email